Time;durP1;ratioP1;P1;durP2;ratioP2;P2;SDS_P1;SDS_P2;PMS_P1;PMS_P2;Temp;Humidity;BMP_temperature;BMP_pressure;BME280_temperature;BME280_humidity;BME280_pressure;Samples;Min_cycle;Max_cycle;Signal;HPM_P1;HPM_P2
2023/04/26 00:01:02;;;;;;;;;2.50;2.50;;;;;15.31;49.32;100144.25;146625;588;46010;-84
2023/04/26 00:04:08;;;;;;;;;3.00;2.25;;;;;15.29;49.16;100138.09;146616;669;46016;-86
2023/04/26 00:07:16;;;;;;;;;2.75;2.75;;;;;15.23;48.97;100146.66;146624;675;46010;-87
2023/04/26 00:10:26;;;;;;;;;2.50;2.50;;;;;15.14;49.48;100141.22;146619;564;46016;-86
2023/04/26 00:13:32;;;;;;;;;2.00;2.00;;;;;14.39;49.45;100029.78;146622;580;46021;-85
2023/04/26 00:16:39;;;;;;;;;1.25;1.25;;;;;14.87;50.47;100125.81;146620;599;46012;-84
2023/04/26 00:19:35;;;;;;;;;2.00;2.00;;;;;14.76;50.24;100125.53;146623;590;47010;-81
2023/04/26 00:22:40;;;;;;;;;0.75;0.75;;;;;14.71;50.22;100120.22;146620;585;46017;-83
2023/04/26 00:25:55;;;;;;;;;1.50;1.00;;;;;14.68;49.77;100117.53;146623;576;46029;-84
2023/04/26 00:29:12;;;;;;;;;0.75;0.00;;;;;14.68;49.46;100114.03;146618;689;46016;-83
2023/04/26 00:32:11;;;;;;;;;1.25;0.00;;;;;14.61;49.94;100105.19;146622;570;47020;-83
2023/04/26 00:35:09;;;;;;;;;1.00;1.00;;;;;14.63;50.36;100106.09;146619;607;46016;-85
2023/04/26 00:38:05;;;;;;;;;1.00;1.00;;;;;14.71;50.02;100108.91;146623;567;46020;-84
2023/04/26 00:41:09;;;;;;;;;0.00;0.00;;;;;14.79;49.02;100109.94;146619;610;46012;-84
2023/04/26 00:44:04;;;;;;;;;0.00;0.00;;;;;14.87;49.25;100111.03;146622;671;46021;-84
2023/04/26 00:47:13;;;;;;;;;0.00;0.00;;;;;14.96;49.31;100115.59;146620;573;46016;-84
2023/04/26 00:50:13;;;;;;;;;2.00;2.00;;;;;15.04;48.54;100108.81;146623;683;46021;-83
2023/04/26 00:53:18;;;;;;;;;3.67;2.00;;;;;15.14;48.62;100113.41;146617;579;46914;-84
2023/04/26 00:56:13;;;;;;;;;0.00;0.00;;;;;15.14;49.27;100105.59;146621;604;47010;-83
2023/04/26 00:59:18;;;;;;;;;2.75;1.00;;;;;15.03;49.85;100091.37;146617;573;46017;-85
2023/04/26 01:02:18;;;;;;;;;2.75;1.00;;;;;14.96;50.05;100110.38;146623;647;46010;-84
2023/04/26 01:05:20;;;;;;;;;2.00;1.00;;;;;14.83;50.22;100105.69;146618;579;46017;-83
2023/04/26 01:08:21;;;;;;;;;2.00;2.00;;;;;14.71;51.02;100104.56;146623;667;46010;-81
2023/04/26 01:11:30;;;;;;;;;1.00;1.00;;;;;14.60;51.47;100099.91;146612;601;47914;-84
2023/04/26 01:14:38;;;;;;;;;1.00;1.00;;;;;14.47;51.47;100098.69;146622;680;47011;-87
2023/04/26 01:17:48;;;;;;;;;2.67;2.00;;;;;14.38;52.03;100094.13;146620;597;46012;-90
2023/04/26 01:20:48;;;;;;;;;3.50;1.50;;;;;14.28;51.92;100082.56;146622;597;46021;-87
2023/04/26 01:23:41;;;;;;;;;2.00;2.00;;;;;14.20;52.08;100072.78;146616;659;46016;-90
2023/04/26 01:26:44;;;;;;;;;;;;;;;;;;;;;
2023/04/26 01:29:42;;;;;;;;;0.00;0.00;;;;;14.10;52.17;100066.44;146619;565;46016;-89
2023/04/26 01:32:34;;;;;;;;;1.25;1.25;;;;;14.07;53.71;100076.78;146621;595;46010;-83
2023/04/26 01:35:41;;;;;;;;;2.75;1.00;;;;;14.11;51.93;100062.97;146618;626;46914;-85
2023/04/26 01:38:34;;;;;;;;;2.00;1.75;;;;;14.11;51.83;100057.75;146623;604;46024;-82
2023/04/26 01:41:27;;;;;;;;;1.50;1.00;;;;;14.12;51.56;100050.84;146619;611;47012;-85
2023/04/26 01:44:20;;;;;;;;;0.00;0.00;;;;;14.13;51.32;100047.41;146623;595;46021;-89
2023/04/26 01:47:12;;;;;;;;;0.00;0.00;;;;;14.15;52.15;100046.59;146619;609;46016;-89
2023/04/26 01:50:09;;;;;;;;;0.00;0.00;;;;;13.53;53.11;99946.81;146620;646;47010;-82
2023/04/26 01:53:06;;;;;;;;;1.00;1.00;;;;;14.16;52.19;100043.13;146619;640;46016;-87
2023/04/26 01:55:58;;;;;;;;;0.25;0.25;;;;;14.19;51.94;100040.59;146622;610;47014;-88
2023/04/26 01:58:56;;;;;;;;;2.00;2.00;;;;;14.23;52.34;100041.56;146619;565;46016;-88
2023/04/26 02:02:00;;;;;;;;;0.00;0.00;;;;;14.31;51.09;100048.75;146623;603;46031;-83
2023/04/26 02:04:55;;;;;;;;;2.00;1.75;;;;;14.39;51.78;100048.03;146618;564;46012;-77
2023/04/26 02:08:00;;;;;;;;;2.00;0.00;;;;;14.38;52.17;100047.16;146622;695;46020;-77
2023/04/26 02:11:05;;;;;;;;;2.75;1.75;;;;;14.41;51.77;100048.97;146619;607;46012;-82
2023/04/26 02:13:59;;;;;;;;;4.50;3.00;;;;;14.41;51.64;100054.19;146621;641;47021;-88
2023/04/26 02:17:08;;;;;;;;;1.00;1.00;;;;;14.16;51.17;100008.38;146615;652;46030;-80
2023/04/26 02:20:17;;;;;;;;;1.00;1.00;;;;;14.28;52.12;100045.19;146620;564;46021;-80
2023/04/26 02:23:12;;;;;;;;;0.25;0.25;;;;;14.19;52.51;100035.38;146620;579;46016;-80
2023/04/26 02:26:05;;;;;;;;;1.25;1.25;;;;;14.14;52.76;100034.38;146622;564;46011;-76
2023/04/26 02:28:48;;;;;;;;;2.75;1.50;;;;;14.02;53.99;100021.06;146703;564;46014;-77
2023/04/26 02:31:52;;;;;;;;;2.00;1.00;;;;;13.91;53.34;100012.06;146619;572;46017;-77
2023/04/26 02:34:54;;;;;;;;;3.25;2.25;;;;;13.84;52.76;100016.25;146622;620;46010;-79
2023/04/26 02:38:01;;;;;;;;;4.25;2.25;;;;;13.84;52.40;100011.03;146619;569;46016;-81
2023/04/26 02:41:24;;;;;;;;;3.25;2.00;;;;;13.45;52.90;99956.13;146620;679;46021;-81
2023/04/26 02:44:23;;;;;;;;;1.00;1.00;;;;;13.70;53.67;100013.25;146619;565;46012;-81
2023/04/26 02:47:28;;;;;;;;;1.75;1.75;;;;;13.65;53.74;100007.03;146623;731;46011;-81
2023/04/26 02:50:26;;;;;;;;;2.25;1.00;;;;;13.69;53.85;100006.28;146618;636;46016;-83
2023/04/26 02:53:21;;;;;;;;;2.00;2.00;;;;;13.75;53.86;100005.56;146621;673;46020;-83
2023/04/26 02:56:13;;;;;;;;;2.25;2.25;;;;;13.79;53.39;100008.28;146617;572;46012;-83
2023/04/26 02:59:14;;;;;;;;;1.25;1.25;;;;;13.86;53.43;100011.94;146620;705;46020;-82
2023/04/26 03:02:07;;;;;;;;;2.00;1.00;;;;;13.93;53.46;100010.41;146616;574;46917;-82
2023/04/26 03:05:14;;;;;;;;;;;;;;;;;;;;;
2023/04/26 03:08:25;;;;;;;;;;;;;;;;;;;;;
2023/04/26 03:11:27;;;;;;;;;;;;;;;;;;;;;
2023/04/26 03:14:19;;;;;;;;;2.75;2.25;;;;;14.01;53.29;100012.34;146614;594;46018;-77
2023/04/26 03:17:14;;;;;;;;;1.75;1.50;;;;;14.03;53.83;100000.22;146616;565;46021;-79
2023/04/26 03:20:20;;;;;;;;;1.25;1.25;;;;;13.86;52.16;99968.53;146614;577;46028;-81
2023/04/26 03:23:25;;;;;;;;;2.00;1.50;;;;;14.17;53.01;100000.56;146621;588;46020;-81
2023/04/26 03:26:31;;;;;;;;;3.25;1.25;;;;;14.34;51.95;100001.00;146618;563;46012;-84
2023/04/26 03:29:51;;;;;;;;;1.75;1.75;;;;;14.51;52.64;99999.69;146643;659;46012;-89
2023/04/26 03:32:48;;;;;;;;;2.75;2.75;;;;;14.65;53.00;99992.22;146636;619;45917;-86
2023/04/26 03:35:43;;;;;;;;;2.00;2.00;;;;;14.74;54.09;99995.03;146640;569;45020;-86
2023/04/26 03:38:37;;;;;;;;;3.00;2.00;;;;;14.76;53.32;99988.09;146635;599;45917;-81
2023/04/26 03:41:42;;;;;;;;;2.50;2.25;;;;;14.83;52.48;99983.91;146642;596;45021;-81
2023/04/26 03:44:55;;;;;;;;;3.25;2.25;;;;;14.73;51.98;99932.34;146641;595;45012;-82
2023/04/26 03:47:50;;;;;;;;;3.50;2.00;;;;;14.96;53.34;99970.28;146640;572;45023;-82
2023/04/26 03:51:02;;;;;;;;;4.50;3.25;;;;;14.94;52.43;99951.09;146632;681;47917;-83
2023/04/26 03:54:04;;;;;;;;;4.25;3.25;;;;;15.04;53.92;99962.59;146644;571;45021;-82
2023/04/26 03:57:01;;;;;;;;;3.50;3.00;;;;;15.08;53.54;99966.16;146634;664;46014;-82
2023/04/26 04:00:05;;;;;;;;;;;;;;;;;;;;;
2023/04/26 04:03:04;;;;;;;;;6.50;6.25;;;;;15.17;54.11;99979.41;146640;565;45017;-80
2023/04/26 04:06:01;;;;;;;;;6.50;5.50;;;;;15.28;53.43;99985.72;146643;569;45020;-80
2023/04/26 04:08:56;;;;;;;;;5.75;5.00;;;;;15.36;53.66;99985.91;146638;732;46016;-87
2023/04/26 04:12:02;;;;;;;;;4.50;4.00;;;;;15.46;53.18;99985.22;146643;614;45020;-88
2023/04/26 04:15:13;;;;;;;;;3.00;3.00;;;;;15.52;53.25;99981.84;146640;641;45016;-85
2023/04/26 04:18:05;;;;;;;;;3.25;3.25;;;;;15.55;53.33;99982.78;146645;664;45010;-85
2023/04/26 04:20:58;;;;;;;;;5.00;4.00;;;;;15.56;53.17;99981.94;146637;664;45037;-87
2023/04/26 04:24:02;;;;;;;;;4.75;4.50;;;;;15.54;53.58;99983.63;146643;569;45010;-86
2023/04/26 04:26:57;;;;;;;;;5.50;4.25;;;;;15.54;54.11;99990.59;146639;653;46012;-88
2023/04/26 04:29:56;;;;;;;;;9.75;9.75;;;;;15.48;54.13;99986.13;146620;581;46010;-87
2023/04/26 04:33:02;;;;;;;;;5.50;4.00;;;;;15.42;53.11;99991.22;146617;600;47012;-88
2023/04/26 04:36:20;;;;;;;;;5.00;5.00;;;;;15.38;53.92;99992.91;146620;579;47020;-89
2023/04/26 04:39:24;;;;;;;;;7.00;6.75;;;;;15.37;54.55;99982.44;146615;692;47915;-90
2023/04/26 04:42:36;;;;;;;;;;;;;;;;;;;;;
2023/04/26 04:45:34;;;;;;;;;9.50;8.25;;;;;15.50;54.81;99987.03;146615;570;46017;-82
2023/04/26 04:48:47;;;;;;;;;8.00;5.50;;;;;15.55;53.74;99981.91;146622;606;46010;-84
2023/04/26 04:51:52;;;;;;;;;5.50;4.50;;;;;15.55;55.12;99981.91;146617;648;46025;-85
2023/04/26 04:55:11;;;;;;;;;4.75;4.75;;;;;15.54;53.82;99974.91;146621;591;46010;-83
2023/04/26 04:58:09;;;;;;;;;5.25;4.25;;;;;15.61;55.63;99979.41;146611;663;46016;-82
2023/04/26 05:01:37;;;;;;;;;6.00;3.00;;;;;15.66;53.98;99970.78;146617;564;46010;-82
2023/04/26 05:04:34;;;;;;;;;4.50;3.00;;;;;15.88;55.44;99979.06;146620;655;46016;-83
2023/04/26 05:07:28;;;;;;;;;3.00;3.00;;;;;16.15;54.98;99976.94;146619;625;46020;-83
2023/04/26 05:10:40;;;;;;;;;2.00;2.00;;;;;16.53;53.43;99968.81;146618;674;46016;-83
2023/04/26 05:13:52;;;;;;;;;;;;;;;;;;;;;
2023/04/26 05:16:55;;;;;;;;;5.25;5.25;;;;;17.33;53.43;99972.53;146619;642;46017;-84
2023/04/26 05:19:57;;;;;;;;;4.00;4.00;;;;;17.69;53.12;99979.03;146617;569;46020;-84
2023/04/26 05:22:53;;;;;;;;;9.25;7.50;;;;;18.03;51.34;99974.16;146614;583;46014;-83
2023/04/26 05:25:45;;;;;;;;;9.00;7.25;;;;;18.34;51.18;99976.16;146621;701;46020;-82
2023/04/26 05:28:42;;;;;;;;;6.00;6.00;;;;;18.68;49.75;99986.91;146615;650;47014;-82
2023/04/26 05:31:45;;;;;;;;;9.25;9.25;;;;;18.85;48.62;99994.94;146615;684;47021;-83
2023/04/26 05:34:46;;;;;;;;;9.75;9.75;;;;;18.84;49.12;99998.41;146616;607;46012;-83
2023/04/26 05:37:53;;;;;;;;;10.75;10.00;;;;;18.74;49.27;100000.13;146620;633;46021;-82
2023/04/26 05:41:00;;;;;;;;;14.25;10.75;;;;;18.60;48.64;100001.75;146609;650;46917;-84
2023/04/26 05:43:56;;;;;;;;;11.00;10.00;;;;;18.49;49.52;99998.16;146613;621;46020;-83
2023/04/26 05:46:51;;;;;;;;;12.25;9.50;;;;;18.49;50.30;100000.78;146603;591;47012;-84
2023/04/26 05:49:56;;;;;;;;;10.00;9.75;;;;;18.50;51.12;99999.91;146617;579;47010;-81
2023/04/26 05:53:03;;;;;;;;;10.00;7.75;;;;;18.48;50.39;99996.41;146618;572;46016;-85
2023/04/26 05:56:14;;;;;;;;;7.00;6.50;;;;;18.45;50.83;99994.63;146620;620;46020;-85
2023/04/26 05:59:19;;;;;;;;;7.50;5.00;;;;;17.87;50.09;99892.72;146617;592;46016;-84
2023/04/26 06:02:36;;;;;;;;;8.50;7.50;;;;;18.53;51.16;99997.31;146626;596;45021;-84
2023/04/26 06:05:40;;;;;;;;;8.00;7.00;;;;;18.70;52.76;100000.94;146617;593;46016;-83
2023/04/26 06:08:55;;;;;;;;;7.25;7.00;;;;;17.84;50.71;99782.53;146619;604;46010;-82
2023/04/26 06:11:52;;;;;;;;;7.00;5.50;;;;;19.39;50.23;100004.81;146611;665;47016;-83
2023/04/26 06:14:50;;;;;;;;;12.75;11.50;;;;;19.61;49.27;100004.91;146619;569;46021;-81
2023/04/26 06:17:45;;;;;;;;;6.75;5.00;;;;;19.61;49.42;99999.66;146610;666;46016;-84
2023/04/26 06:21:14;;;;;;;;;6.25;5.00;;;;;19.47;49.50;99993.44;146620;599;46021;-76
2023/04/26 06:24:14;;;;;;;;;6.50;4.00;;;;;19.41;50.90;99996.97;146611;576;46016;-81
2023/04/26 06:27:20;;;;;;;;;6.75;6.25;;;;;19.41;50.27;100011.84;146620;621;47010;-82
2023/04/26 06:30:34;;;;;;;;;7.00;5.25;;;;;19.47;50.16;100012.75;146619;710;46013;-82
2023/04/26 06:33:36;;;;;;;;;5.50;5.00;;;;;19.47;49.88;100023.28;146618;647;46020;-84
2023/04/26 06:36:50;;;;;;;;;5.50;5.25;;;;;19.52;50.52;100025.91;146619;639;46029;-86
2023/04/26 06:39:57;;;;;;;;;;;;;;;;;;;;;
2023/04/26 06:42:58;;;;;;;;;5.00;4.00;;;;;19.43;52.03;100028.50;146617;577;46012;-83
2023/04/26 06:46:12;;;;;;;;;4.33;4.33;;;;;18.37;50.95;99863.31;146618;657;46021;-80
2023/04/26 06:49:20;;;;;;;;;3.33;3.33;;;;;19.30;52.42;100023.19;146615;625;46914;-82
2023/04/26 06:52:17;;;;;;;;;4.00;4.00;;;;;19.33;53.26;100025.84;146619;577;46021;-85
2023/04/26 06:55:31;;;;;;;;;;;;;;;;;;;;;
2023/04/26 06:58:30;;;;;;;;;5.75;5.75;;;;;19.54;52.03;100032.94;146622;580;47011;-85
2023/04/26 07:01:33;;;;;;;;;14.75;13.50;;;;;19.63;51.21;100026.84;146616;573;46914;-78
2023/04/26 07:04:34;;;;;;;;;19.75;17.25;;;;;19.50;51.63;100033.81;146611;580;46020;-83
2023/04/26 07:07:32;;;;;;;;;25.00;20.50;;;;;19.35;53.72;100033.75;146607;606;46014;-82
2023/04/26 07:10:34;;;;;;;;;35.50;29.50;;;;;19.27;53.81;100031.06;146613;563;46010;-81
2023/04/26 07:13:27;;;;;;;;;35.00;30.75;;;;;19.22;55.15;100038.06;146611;578;46012;-80
2023/04/26 07:16:30;;;;;;;;;40.75;32.25;;;;;19.21;56.75;100031.03;146607;619;47010;-83
2023/04/26 07:19:22;;;;;;;;;30.75;27.50;;;;;19.28;56.95;100034.56;146605;590;46016;-82
2023/04/26 07:22:16;;;;;;;;;21.00;15.00;;;;;19.36;56.31;100039.00;146613;570;46021;-83
2023/04/26 07:25:12;;;;;;;;;15.00;11.75;;;;;19.42;58.19;100047.78;146611;581;46016;-81
2023/04/26 07:28:13;;;;;;;;;9.00;8.00;;;;;19.41;57.58;100054.81;146617;670;46031;-84
2023/04/26 07:31:05;;;;;;;;;12.25;10.75;;;;;19.32;57.38;100066.16;146622;570;46012;-84
2023/04/26 07:34:07;;;;;;;;;9.00;7.75;;;;;19.21;55.42;100074.84;146621;569;46010;-82
2023/04/26 07:37:03;;;;;;;;;11.75;10.75;;;;;19.05;55.85;100080.00;146618;564;46016;-85
2023/04/26 07:39:59;;;;;;;;;11.25;10.00;;;;;18.90;56.02;100086.00;146619;574;46010;-85
2023/04/26 07:42:54;;;;;;;;;18.50;16.75;;;;;18.77;57.36;100101.69;146616;672;46917;-85
2023/04/26 07:45:53;;;;;;;;;31.50;24.50;;;;;18.64;56.60;100098.06;146610;586;46020;-83
